createdAt,value
2022-09-13T00:02:08.476Z,6.40
2022-09-13T00:04:41.525Z,6.33
2022-09-13T00:07:15.061Z,6.62
2022-09-13T00:09:47.822Z,6.42
2022-09-13T00:12:20.690Z,6.80
2022-09-13T00:14:53.807Z,6.00
2022-09-13T00:17:28.574Z,6.40
2022-09-13T00:20:01.291Z,6.87
2022-09-13T00:22:34.422Z,7.20
2022-09-13T00:25:08.586Z,6.37
2022-09-13T00:30:15.060Z,7.62
2022-09-13T00:35:19.831Z,6.10
2022-09-13T00:37:52.677Z,6.78
2022-09-13T00:40:25.725Z,6.42
2022-09-13T00:42:58.808Z,6.60
2022-09-13T00:45:31.714Z,6.67
2022-09-13T00:48:08.060Z,6.78
2022-09-13T00:50:45.409Z,6.83
2022-09-13T00:53:24.569Z,8.13
2022-09-13T00:56:04.598Z,9.98
2022-09-13T00:58:47.961Z,9.58
2022-09-13T01:01:22.296Z,9.68
2022-09-13T01:03:55.657Z,10.13
2022-09-13T01:06:33.188Z,10.32
2022-09-13T01:09:06.812Z,12.75
2022-09-13T01:11:53.745Z,11.93
2022-09-13T01:14:26.843Z,11.35
2022-09-13T01:17:00.241Z,11.75
2022-09-13T01:19:34.532Z,10.00
2022-09-13T01:22:44.603Z,9.38
2022-09-13T01:25:54.937Z,9.15
2022-09-13T01:28:44.649Z,9.55
2022-09-13T01:31:34.266Z,8.90
2022-09-13T01:34:45.939Z,10.10
2022-09-13T01:37:41.871Z,9.98
2022-09-13T01:40:39.951Z,10.55
2022-09-13T01:43:29.474Z,10.43
2022-09-13T01:46:45.069Z,10.18
2022-09-13T01:52:28.710Z,8.78
2022-09-13T01:55:19.274Z,8.40
2022-09-13T01:58:28.508Z,9.70
2022-09-13T02:01:16.205Z,9.30
2022-09-13T02:04:11.116Z,9.80
2022-09-13T02:06:49.193Z,10.70
2022-09-13T02:09:26.072Z,12.00
2022-09-13T02:12:03.955Z,11.25
2022-09-13T02:14:40.175Z,11.78
2022-09-13T02:17:20.600Z,13.00
2022-09-13T02:20:07.369Z,14.90
2022-09-13T02:22:47.084Z,16.70
2022-09-13T02:25:22.315Z,16.77
2022-09-13T02:27:59.193Z,16.30
2022-09-13T02:30:34.777Z,17.50
2022-09-13T02:33:27.028Z,18.50
2022-09-13T02:36:13.511Z,19.25
2022-09-13T02:38:57.342Z,20.20
2022-09-13T02:41:56.299Z,20.57
2022-09-13T02:47:37.727Z,22.02
2022-09-13T02:50:21.161Z,23.25
2022-09-13T02:53:31.669Z,22.80
2022-09-13T02:56:55.644Z,23.87
2022-09-13T02:59:30.349Z,23.98
2022-09-13T03:02:12.801Z,25.12
2022-09-13T03:04:45.936Z,25.75
2022-09-13T03:07:19.031Z,25.92
2022-09-13T03:10:04.636Z,23.92
2022-09-13T03:13:16.202Z,22.37
2022-09-13T03:16:28.296Z,21.75
2022-09-13T03:19:28.976Z,21.02
2022-09-13T03:22:27.512Z,20.12
2022-09-13T03:25:30.393Z,22.85
2022-09-13T03:28:27.554Z,23.38
2022-09-13T03:31:11.551Z,22.02
2022-09-13T03:34:07.179Z,22.52
2022-09-13T03:36:57.043Z,22.58
2022-09-13T03:39:49.519Z,21.62
2022-09-13T03:42:42.148Z,21.40
2022-09-13T03:45:17.415Z,21.35
2022-09-13T03:47:51.191Z,20.55
2022-09-13T03:50:25.771Z,21.75
2022-09-13T03:53:07.639Z,21.05
2022-09-13T03:55:44.802Z,19.30
2022-09-13T03:58:21.158Z,20.80
2022-09-13T04:00:55.153Z,19.30
2022-09-13T04:03:27.808Z,18.52
2022-09-13T04:06:01.434Z,18.70
2022-09-13T04:08:35.004Z,17.10
2022-09-13T04:11:09.679Z,17.42
2022-09-13T04:13:42.868Z,18.90
2022-09-13T04:16:15.985Z,19.77
2022-09-13T04:18:48.997Z,18.65
2022-09-13T04:21:22.179Z,18.35
2022-09-13T04:23:55.127Z,18.67
2022-09-13T04:26:27.884Z,16.95
2022-09-13T04:29:00.959Z,18.15
2022-09-13T04:31:33.975Z,18.57
2022-09-13T04:34:07.506Z,20.40
2022-09-13T04:36:40.911Z,19.33
2022-09-13T04:39:17.352Z,18.20
2022-09-13T04:41:52.342Z,20.72
2022-09-13T04:44:25.735Z,18.35
2022-09-13T04:47:00.030Z,17.35
2022-09-13T04:49:34.282Z,18.90
2022-09-13T04:52:07.431Z,20.77
2022-09-13T04:54:40.934Z,19.82
2022-09-13T04:57:13.691Z,20.62
2022-09-13T04:59:46.565Z,20.15
2022-09-13T05:02:19.535Z,19.82
2022-09-13T05:04:52.559Z,19.90
2022-09-13T05:07:25.952Z,17.97
2022-09-13T05:09:58.855Z,19.55
2022-09-13T05:12:32.244Z,18.65
2022-09-13T05:15:07.046Z,18.42
2022-09-13T05:17:40.231Z,17.02
2022-09-13T05:20:13.238Z,18.15
2022-09-13T05:22:46.138Z,18.07
2022-09-13T05:25:22.990Z,18.65
2022-09-13T05:27:55.606Z,18.75
2022-09-13T05:30:29.105Z,20.55
2022-09-13T05:33:01.770Z,20.12
2022-09-13T05:35:34.687Z,20.17
2022-09-13T05:38:08.193Z,19.27
2022-09-13T05:40:41.248Z,19.60
2022-09-13T05:43:15.391Z,18.27
2022-09-13T05:45:48.417Z,18.62
2022-09-13T05:48:21.180Z,16.93
2022-09-13T05:50:58.321Z,16.60
2022-09-13T05:53:28.847Z,16.82
2022-09-13T05:56:01.968Z,17.92
2022-09-13T05:58:36.154Z,17.35
2022-09-13T06:01:11.202Z,17.87
2022-09-13T06:03:44.011Z,16.52
2022-09-13T06:06:17.456Z,18.70
2022-09-13T06:08:54.171Z,18.50
2022-09-13T06:11:28.198Z,18.57
2022-09-13T06:14:01.169Z,18.48
2022-09-13T06:16:36.000Z,18.32
2022-09-13T06:19:09.219Z,18.85
2022-09-13T06:21:42.475Z,17.10
2022-09-13T06:24:15.488Z,17.23
2022-09-13T06:26:48.334Z,17.27
2022-09-13T06:29:21.336Z,15.32
2022-09-13T06:31:54.738Z,14.75
2022-09-13T06:34:31.259Z,12.77
2022-09-13T06:37:04.409Z,12.63
2022-09-13T06:39:37.186Z,13.40
2022-09-13T06:42:10.651Z,12.80
2022-09-13T06:44:46.280Z,13.13
2022-09-13T06:47:19.458Z,12.80
2022-09-13T06:49:52.307Z,12.28
2022-09-13T06:52:25.857Z,12.88
2022-09-13T06:54:59.153Z,13.05
2022-09-13T06:57:33.254Z,13.48
2022-09-13T07:00:07.227Z,13.43
2022-09-13T07:02:40.641Z,13.98
2022-09-13T07:05:13.614Z,13.90
2022-09-13T07:07:47.727Z,15.43
2022-09-13T07:10:20.656Z,14.47
2022-09-13T07:12:54.021Z,15.03
2022-09-13T07:15:26.929Z,15.03
2022-09-13T07:18:01.020Z,15.08
2022-09-13T07:20:34.291Z,14.00
2022-09-13T07:23:07.069Z,15.68
2022-09-13T07:25:40.777Z,15.00
2022-09-13T07:28:13.586Z,16.25
2022-09-13T07:30:46.489Z,16.50
2022-09-13T07:33:19.440Z,15.90
2022-09-13T07:35:57.785Z,20.57
2022-09-13T07:38:30.608Z,21.97
2022-09-13T07:41:06.361Z,23.32
2022-09-13T07:43:39.501Z,23.83
2022-09-13T07:46:16.435Z,22.62
2022-09-13T07:48:50.639Z,24.45
2022-09-13T07:51:26.441Z,22.93
2022-09-13T07:54:02.499Z,24.20
2022-09-13T07:56:38.143Z,23.67
2022-09-13T07:59:17.019Z,23.73
2022-09-13T08:01:52.539Z,24.67
2022-09-13T08:04:27.568Z,24.47
2022-09-13T08:07:01.400Z,23.10
2022-09-13T08:09:34.496Z,23.87
2022-09-13T08:12:07.792Z,23.83
2022-09-13T08:14:41.094Z,24.50
2022-09-13T08:17:14.064Z,23.15
2022-09-13T08:19:47.127Z,23.47
2022-09-13T08:22:20.349Z,24.63
2022-09-13T08:24:53.097Z,23.87
2022-09-13T08:27:25.913Z,26.23
2022-09-13T08:29:58.829Z,24.07
2022-09-13T08:32:32.158Z,22.82
2022-09-13T08:35:05.602Z,22.90
2022-09-13T08:37:38.601Z,20.75
2022-09-13T08:40:12.131Z,22.50
2022-09-13T08:43:19.666Z,21.80
2022-09-13T08:46:03.102Z,20.77
2022-09-13T08:48:44.450Z,19.80
2022-09-13T08:51:37.958Z,19.77
2022-09-13T08:54:14.360Z,20.62
2022-09-13T08:56:55.225Z,20.82
2022-09-13T08:59:56.984Z,20.72
2022-09-13T09:02:51.766Z,22.07
2022-09-13T09:05:29.350Z,21.85
2022-09-13T09:08:27.407Z,23.18
2022-09-13T09:11:05.043Z,21.93
2022-09-13T09:13:45.201Z,24.45
2022-09-13T09:16:51.698Z,25.72
2022-09-13T09:19:34.027Z,25.80
2022-09-13T09:22:19.921Z,26.62
2022-09-13T09:25:00.137Z,27.32
2022-09-13T09:27:34.039Z,26.62
2022-09-13T09:30:08.006Z,28.30
2022-09-13T09:33:00.649Z,27.73
2022-09-13T09:35:53.560Z,28.77
2022-09-13T09:38:43.170Z,28.87
2022-09-13T09:41:32.862Z,28.40
2022-09-13T09:44:28.296Z,28.40
2022-09-13T09:47:13.961Z,27.52
2022-09-13T09:50:12.308Z,29.27
2022-09-13T09:53:10.775Z,27.85
2022-09-13T09:55:52.161Z,29.05
2022-09-13T09:58:45.709Z,28.00
2022-09-13T10:01:36.752Z,28.00
2022-09-13T10:04:22.476Z,26.77
2022-09-13T10:07:15.665Z,27.77
2022-09-13T10:09:57.398Z,27.17
2022-09-13T10:12:39.424Z,26.62
2022-09-13T10:15:24.972Z,24.92
2022-09-13T10:18:42.968Z,23.18
2022-09-13T10:21:21.503Z,22.05
2022-09-13T10:23:57.319Z,21.20
2022-09-13T10:26:30.231Z,21.45
2022-09-13T10:29:10.394Z,19.37
2022-09-13T10:31:50.208Z,19.70
2022-09-13T10:34:30.494Z,18.95
2022-09-13T10:37:13.637Z,18.45
2022-09-13T10:40:12.032Z,19.12
2022-09-13T10:42:57.459Z,16.80
2022-09-13T10:45:33.037Z,16.90
2022-09-13T10:48:16.038Z,16.65
2022-09-13T10:51:09.584Z,15.45
2022-09-13T10:53:44.473Z,14.28
2022-09-13T10:56:27.239Z,13.28
2022-09-13T10:59:30.388Z,14.33
2022-09-13T11:02:38.473Z,13.30
2022-09-13T11:05:39.188Z,13.03
2022-09-13T11:08:31.336Z,12.45
2022-09-13T11:11:26.864Z,11.25
2022-09-13T11:14:22.740Z,11.30
2022-09-13T11:17:06.626Z,11.03
2022-09-13T11:22:44.091Z,10.60
2022-09-13T11:26:04.782Z,11.28
2022-09-13T11:29:09.183Z,12.47
2022-09-13T11:32:07.708Z,11.85
2022-09-13T11:35:02.687Z,9.25
2022-09-13T11:37:49.212Z,8.35
2022-09-13T11:40:47.597Z,7.87
2022-09-13T11:43:37.121Z,8.80
2022-09-13T11:46:48.101Z,9.43
2022-09-13T11:50:13.688Z,9.73
2022-09-13T11:53:06.259Z,10.50
2022-09-13T11:55:58.112Z,11.30
2022-09-13T11:58:36.231Z,9.53
2022-09-13T12:01:12.084Z,9.10
2022-09-13T12:03:58.379Z,9.68
2022-09-13T12:06:47.845Z,9.10
2022-09-13T12:09:25.474Z,9.58
2022-09-13T12:12:12.095Z,11.55
2022-09-13T12:14:59.269Z,8.75
2022-09-13T12:17:57.281Z,9.13
2022-09-13T12:20:43.671Z,9.00
2022-09-13T12:23:36.466Z,9.05
2022-09-13T12:26:36.844Z,7.75
2022-09-13T12:29:32.917Z,7.40
2022-09-13T12:32:08.742Z,7.72
2022-09-13T12:35:08.771Z,7.53
2022-09-13T12:37:51.920Z,6.78
2022-09-13T12:40:52.000Z,7.92
2022-09-13T12:43:54.630Z,7.17
2022-09-13T12:46:37.705Z,6.80
2022-09-13T12:49:15.151Z,6.80
2022-09-13T12:52:19.620Z,7.30
2022-09-13T12:55:45.796Z,7.10
2022-09-13T12:58:32.138Z,11.60
2022-09-13T13:01:23.534Z,6.97
2022-09-13T13:04:06.367Z,7.35
2022-09-13T13:06:55.319Z,6.80
2022-09-13T13:09:33.346Z,6.90
2022-09-13T13:12:06.984Z,6.97
2022-09-13T13:14:47.102Z,6.85
2022-09-13T13:17:52.553Z,6.12
2022-09-13T13:20:49.426Z,6.33
2022-09-13T13:23:37.788Z,6.75
2022-09-13T13:26:55.476Z,6.53
2022-09-13T13:29:34.305Z,5.37
2022-09-13T13:32:12.711Z,5.45
2022-09-13T13:34:52.936Z,5.42
2022-09-13T13:37:32.577Z,4.15
2022-09-13T13:40:27.237Z,4.85
2022-09-13T13:43:27.021Z,4.47
2022-09-13T13:46:15.928Z,4.50
2022-09-13T13:48:49.190Z,4.78
2022-09-13T13:51:25.856Z,4.58
2022-09-13T13:54:03.344Z,4.47
2022-09-13T13:56:49.956Z,4.95
2022-09-13T13:59:28.959Z,4.37
2022-09-13T14:02:02.270Z,4.50
2022-09-13T14:04:55.915Z,4.25
2022-09-13T14:07:59.263Z,4.58
2022-09-13T14:10:43.474Z,4.20
2022-09-13T14:13:42.182Z,3.50
2022-09-13T14:16:31.128Z,3.80
2022-09-13T14:19:10.342Z,3.60
2022-09-13T14:21:43.458Z,4.00
2022-09-13T14:24:24.738Z,3.65
2022-09-13T14:27:04.943Z,4.15
2022-09-13T14:29:36.366Z,3.72
2022-09-13T14:32:15.419Z,3.85
2022-09-13T14:34:57.402Z,3.02
2022-09-13T14:37:33.952Z,3.30
2022-09-13T14:40:26.956Z,3.83
2022-09-13T14:43:00.299Z,3.87
2022-09-13T14:45:38.155Z,3.20
2022-09-13T14:48:26.586Z,3.70
2022-09-13T14:51:06.961Z,3.87
2022-09-13T14:53:41.466Z,3.40
2022-09-13T14:56:19.418Z,4.28
2022-09-13T14:58:56.179Z,3.10
2022-09-13T15:01:33.790Z,3.33
2022-09-13T15:04:07.990Z,3.30
2022-09-13T15:06:44.254Z,3.35
2022-09-13T15:09:28.488Z,3.70
2022-09-13T15:12:03.075Z,3.25
2022-09-13T15:14:39.289Z,3.45
2022-09-13T15:17:17.433Z,3.20
2022-09-13T15:19:59.464Z,3.52
2022-09-13T15:22:35.775Z,3.40
2022-09-13T15:25:28.946Z,4.62
2022-09-13T15:28:01.981Z,2.90
2022-09-13T15:30:40.770Z,3.02
2022-09-13T15:33:26.808Z,3.00
2022-09-13T15:36:18.938Z,2.58
2022-09-13T15:39:10.621Z,2.85
2022-09-13T15:41:59.223Z,2.47
2022-09-13T15:44:32.988Z,2.60
2022-09-13T15:47:10.390Z,2.65
2022-09-13T15:49:51.067Z,2.67
2022-09-13T15:52:25.037Z,2.80
2022-09-13T15:54:57.922Z,2.80
2022-09-13T15:57:32.000Z,2.90
2022-09-13T16:00:08.065Z,2.60
2022-09-13T16:02:43.555Z,2.67
2022-09-13T16:05:16.833Z,2.72
2022-09-13T16:07:49.909Z,3.70
2022-09-13T16:10:24.670Z,3.12
2022-09-13T16:12:57.523Z,2.92
2022-09-13T16:15:30.750Z,2.98
2022-09-13T16:18:03.794Z,3.20
2022-09-13T16:20:40.266Z,3.20
2022-09-13T16:23:13.572Z,2.60
2022-09-13T16:25:48.120Z,3.42
2022-09-13T16:28:21.654Z,2.98
2022-09-13T16:30:55.293Z,3.47
2022-09-13T16:33:28.254Z,3.42
2022-09-13T16:36:02.543Z,3.47
2022-09-13T16:38:35.774Z,3.05
2022-09-13T16:41:09.892Z,3.67
2022-09-13T16:43:43.378Z,3.25
2022-09-13T16:46:16.681Z,2.83
2022-09-13T16:48:57.396Z,3.93
2022-09-13T16:51:30.739Z,3.65
2022-09-13T16:54:03.893Z,3.83
2022-09-13T16:56:37.073Z,3.98
2022-09-13T16:59:10.362Z,3.60
2022-09-13T17:01:44.384Z,4.53
2022-09-13T17:04:19.149Z,4.03
2022-09-13T17:06:53.264Z,4.25
2022-09-13T17:09:28.286Z,4.30
2022-09-13T17:12:02.412Z,5.10
2022-09-13T17:14:36.580Z,5.58
2022-09-13T17:17:12.045Z,5.20
2022-09-13T17:19:46.708Z,4.42
2022-09-13T17:22:20.870Z,4.35
2022-09-13T17:24:54.813Z,4.30
2022-09-13T17:27:28.935Z,4.03
2022-09-13T17:30:04.267Z,4.60
2022-09-13T17:32:38.397Z,3.87
2022-09-13T17:35:13.318Z,4.33
2022-09-13T17:37:48.759Z,4.20
2022-09-13T17:40:22.569Z,5.97
2022-09-13T17:42:56.541Z,8.90
2022-09-13T17:45:30.511Z,10.23
2022-09-13T17:48:05.448Z,6.58
2022-09-13T17:50:39.657Z,5.08
2022-09-13T17:53:14.329Z,4.53
2022-09-13T17:55:55.829Z,4.45
2022-09-13T17:58:29.862Z,4.42
2022-09-13T18:01:09.442Z,4.53
2022-09-13T18:03:43.912Z,4.03
2022-09-13T18:06:18.434Z,3.33
2022-09-13T18:08:55.856Z,3.60
2022-09-13T18:11:29.961Z,3.30
2022-09-13T18:14:06.920Z,3.87
2022-09-13T18:16:43.145Z,4.40
2022-09-13T18:21:50.582Z,3.72
2022-09-13T18:24:24.594Z,3.22
2022-09-13T18:26:58.503Z,4.03
2022-09-13T18:29:34.356Z,4.08
2022-09-13T18:32:11.100Z,4.53
2022-09-13T18:34:45.425Z,3.75
2022-09-13T18:37:19.254Z,4.05
2022-09-13T18:39:53.847Z,3.62
2022-09-13T18:42:32.734Z,3.52
2022-09-13T18:45:02.921Z,3.70
2022-09-13T18:47:37.402Z,3.77
2022-09-13T18:50:12.042Z,3.65
2022-09-13T18:52:46.593Z,3.77
2022-09-13T18:55:20.376Z,3.42
2022-09-13T18:57:55.127Z,3.60
2022-09-13T19:00:29.753Z,3.77
2022-09-13T19:03:12.329Z,3.33
2022-09-13T19:05:40.360Z,3.15
2022-09-13T19:08:14.649Z,3.65
2022-09-13T19:10:50.099Z,3.60
2022-09-13T19:13:25.737Z,4.10
2022-09-13T19:16:03.803Z,3.58
2022-09-13T19:18:42.986Z,3.70
2022-09-13T19:21:19.075Z,3.65
2022-09-13T19:23:59.950Z,3.33
2022-09-13T19:26:34.904Z,4.17
2022-09-13T19:29:15.271Z,4.10
2022-09-13T19:31:50.808Z,3.67
2022-09-13T19:34:25.635Z,3.70
2022-09-13T19:36:59.677Z,3.72
2022-09-13T19:39:33.591Z,3.60
2022-09-13T19:42:08.224Z,3.35
2022-09-13T19:44:46.935Z,3.72
2022-09-13T19:49:56.799Z,4.10
2022-09-13T19:52:30.299Z,3.80
2022-09-13T19:55:03.795Z,4.17
2022-09-13T19:57:37.994Z,3.87
2022-09-13T20:00:16.839Z,4.28
2022-09-13T20:02:51.057Z,4.30
2022-09-13T20:05:28.032Z,3.80
2022-09-13T20:07:59.576Z,4.00
2022-09-13T20:10:33.097Z,4.53
2022-09-13T20:13:06.414Z,4.67
2022-09-13T20:15:40.975Z,4.08
2022-09-13T20:18:15.818Z,4.50
2022-09-13T20:23:23.201Z,4.40
2022-09-13T20:25:56.022Z,4.55
2022-09-13T20:28:29.264Z,4.70
2022-09-13T20:31:02.623Z,4.90
2022-09-13T20:33:36.516Z,5.40
2022-09-13T20:36:13.768Z,5.70
2022-09-13T20:38:49.970Z,4.92
2022-09-13T20:41:24.013Z,5.22
2022-09-13T20:43:58.773Z,5.53
2022-09-13T20:46:32.048Z,4.50
2022-09-13T20:49:05.816Z,4.83
2022-09-13T20:54:13.742Z,5.10
2022-09-13T20:56:46.556Z,5.65
2022-09-13T20:59:20.443Z,5.03
2022-09-13T21:01:53.393Z,6.72
2022-09-13T21:04:26.461Z,5.33
2022-09-13T21:07:17.185Z,5.00
2022-09-13T21:09:50.171Z,6.30
2022-09-13T21:12:24.678Z,6.28
2022-09-13T21:14:57.582Z,5.15
2022-09-13T21:17:30.591Z,5.47
2022-09-13T21:20:04.350Z,5.90
2022-09-13T21:22:37.968Z,5.97
2022-09-13T21:25:11.548Z,5.80
2022-09-13T21:27:47.028Z,6.00
2022-09-13T21:30:20.007Z,6.37
2022-09-13T21:32:52.986Z,6.40
2022-09-13T21:35:25.942Z,6.37
2022-09-13T21:37:58.691Z,6.12
2022-09-13T21:40:32.833Z,5.78
2022-09-13T21:43:05.629Z,5.67
2022-09-13T21:45:38.481Z,6.47
2022-09-13T21:48:11.413Z,6.20
2022-09-13T21:50:46.270Z,6.97
2022-09-13T21:53:19.350Z,6.03
2022-09-13T21:55:52.497Z,6.47
2022-09-13T21:58:25.352Z,6.65
2022-09-13T22:01:07.835Z,6.90
2022-09-13T22:03:43.343Z,7.20
2022-09-13T22:06:17.246Z,7.25
2022-09-13T22:08:54.132Z,6.75
2022-09-13T22:11:33.967Z,6.97
2022-09-13T22:14:09.642Z,6.22
2022-09-13T22:16:45.694Z,6.47
2022-09-13T22:19:27.359Z,7.30
2022-09-13T22:22:01.719Z,8.20
2022-09-13T22:27:08.865Z,7.65
2022-09-13T22:29:43.354Z,8.07
2022-09-13T22:32:16.574Z,7.22
2022-09-13T22:34:49.504Z,6.80
2022-09-13T22:37:22.249Z,6.97
2022-09-13T22:39:54.995Z,6.50
2022-09-13T22:42:27.820Z,7.60
2022-09-13T22:45:00.975Z,7.87
2022-09-13T22:47:34.937Z,8.18
2022-09-13T22:50:08.700Z,7.50
2022-09-13T22:52:41.439Z,7.35
2022-09-13T22:55:14.214Z,7.00
2022-09-13T22:57:47.038Z,7.10
2022-09-13T23:00:19.953Z,7.03
2022-09-13T23:02:52.690Z,8.15
2022-09-13T23:05:26.212Z,7.40
2022-09-13T23:08:00.135Z,7.87
2022-09-13T23:10:34.081Z,7.78
2022-09-13T23:15:41.402Z,7.20
2022-09-13T23:18:14.581Z,7.58
2022-09-13T23:20:50.645Z,8.08
2022-09-13T23:23:23.784Z,8.15
2022-09-13T23:25:57.006Z,8.00
2022-09-13T23:28:31.368Z,8.15
2022-09-13T23:31:20.343Z,7.20
2022-09-13T23:33:56.587Z,7.42
2022-09-13T23:36:36.534Z,7.42
2022-09-13T23:39:14.301Z,8.30
2022-09-13T23:41:49.662Z,8.50
2022-09-13T23:44:22.419Z,7.80
2022-09-13T23:46:55.249Z,6.92
2022-09-13T23:49:28.174Z,7.87
2022-09-13T23:52:02.025Z,7.35
2022-09-13T23:54:35.536Z,7.50
2022-09-13T23:57:08.289Z,7.42
2022-09-13T23:59:41.250Z,7.97
